createdAt,value
2023-05-10T00:00:13.333Z,50.01
2023-05-10T00:03:02.217Z,49.78
2023-05-10T00:05:31.205Z,49.82
2023-05-10T00:08:01.211Z,50.08
2023-05-10T00:10:30.189Z,50.37
2023-05-10T00:12:58.794Z,50.41
2023-05-10T00:15:27.812Z,50.09
2023-05-10T00:17:56.459Z,49.90
2023-05-10T00:20:25.448Z,50.08
2023-05-10T00:22:54.252Z,50.32
2023-05-10T00:25:24.481Z,50.22
2023-05-10T00:27:53.222Z,50.12
2023-05-10T00:30:22.573Z,50.19
2023-05-10T00:32:52.763Z,50.36
2023-05-10T00:35:22.654Z,50.12
2023-05-10T00:37:51.527Z,50.16
2023-05-10T00:40:20.480Z,50.07
2023-05-10T00:42:54.165Z,50.01
2023-05-10T00:45:23.884Z,50.05
2023-05-10T00:47:56.103Z,50.35
2023-05-10T00:50:25.719Z,50.56
2023-05-10T00:52:54.874Z,49.99
2023-05-10T00:55:24.208Z,49.59
2023-05-10T00:57:55.799Z,49.86
2023-05-10T01:00:25.167Z,49.85
2023-05-10T01:02:55.695Z,50.18
2023-05-10T01:05:25.035Z,49.73
2023-05-10T01:07:53.760Z,49.59
2023-05-10T01:10:23.285Z,49.98
2023-05-10T01:12:53.806Z,50.18
2023-05-10T01:15:24.559Z,50.23
2023-05-10T01:17:54.684Z,49.97
2023-05-10T01:20:23.985Z,50.47
2023-05-10T01:23:38.577Z,50.40
2023-05-10T01:26:39.202Z,50.44
2023-05-10T01:29:55.716Z,50.50
2023-05-10T01:32:42.700Z,50.32
2023-05-10T01:35:21.013Z,50.89
2023-05-10T01:38:03.897Z,50.80
2023-05-10T01:40:41.878Z,50.74
2023-05-10T01:43:21.656Z,51.03
2023-05-10T01:46:02.212Z,50.52
2023-05-10T01:48:36.058Z,50.75
2023-05-10T01:51:06.748Z,50.95
2023-05-10T01:53:40.151Z,51.06
2023-05-10T01:56:11.930Z,50.76
2023-05-10T01:58:47.451Z,51.12
2023-05-10T02:01:17.478Z,51.17
2023-05-10T02:03:51.998Z,51.25
2023-05-10T02:06:24.273Z,51.24
2023-05-10T02:08:55.651Z,51.07
2023-05-10T02:11:25.755Z,51.36
2023-05-10T02:13:58.375Z,51.09
2023-05-10T02:16:32.152Z,51.41
2023-05-10T02:19:05.231Z,51.19
2023-05-10T02:21:35.528Z,51.69
2023-05-10T02:24:07.497Z,51.70
2023-05-10T02:26:38.596Z,51.76
2023-05-10T02:29:09.783Z,51.74
2023-05-10T02:31:39.861Z,51.65
2023-05-10T02:34:12.153Z,51.90
2023-05-10T02:36:43.554Z,52.05
2023-05-10T02:39:16.635Z,52.30
2023-05-10T02:41:48.632Z,52.49
2023-05-10T02:44:20.986Z,52.80
2023-05-10T02:46:50.022Z,52.55
2023-05-10T02:49:21.668Z,53.29
2023-05-10T02:52:02.117Z,53.11
2023-05-10T02:54:38.704Z,53.39
2023-05-10T02:57:11.961Z,53.86
2023-05-10T02:59:41.186Z,53.34
2023-05-10T03:02:10.577Z,53.59
2023-05-10T03:04:41.334Z,53.73
2023-05-10T03:07:10.911Z,54.22
2023-05-10T03:09:40.258Z,53.99
2023-05-10T03:12:20.306Z,53.80
2023-05-10T03:14:59.853Z,54.08
2023-05-10T03:17:42.090Z,54.24
2023-05-10T03:20:19.254Z,53.79
2023-05-10T03:22:53.549Z,54.33
2023-05-10T03:25:24.998Z,54.99
2023-05-10T03:27:56.530Z,54.97
2023-05-10T03:30:27.572Z,54.53
2023-05-10T03:32:56.467Z,54.58
2023-05-10T03:35:26.784Z,54.41
2023-05-10T03:37:55.436Z,55.95
2023-05-10T03:40:25.082Z,55.82
2023-05-10T03:42:54.098Z,56.47
2023-05-10T03:45:23.233Z,57.23
2023-05-10T03:47:52.088Z,56.42
2023-05-10T03:50:21.703Z,56.95
2023-05-10T03:52:53.519Z,54.66
2023-05-10T03:55:24.389Z,54.29
2023-05-10T03:57:54.821Z,54.87
2023-05-10T04:00:25.107Z,54.10
2023-05-10T04:02:56.524Z,54.22
2023-05-10T04:05:26.075Z,54.85
2023-05-10T04:07:56.852Z,53.64
2023-05-10T04:10:26.098Z,53.44
2023-05-10T04:12:54.766Z,53.66
2023-05-10T04:15:23.751Z,54.12
2023-05-10T04:17:52.753Z,53.89
2023-05-10T04:20:21.906Z,53.21
2023-05-10T04:22:50.523Z,53.04
2023-05-10T04:25:20.949Z,52.49
2023-05-10T04:27:49.566Z,52.61
2023-05-10T04:30:19.164Z,52.18
2023-05-10T04:32:47.856Z,51.75
2023-05-10T04:35:17.135Z,52.46
2023-05-10T04:37:45.730Z,51.75
2023-05-10T04:40:15.305Z,51.47
2023-05-10T04:42:46.519Z,51.59
2023-05-10T04:45:16.706Z,51.65
2023-05-10T04:47:45.394Z,51.04
2023-05-10T04:50:14.507Z,51.01
2023-05-10T04:52:43.328Z,50.85
2023-05-10T04:55:12.291Z,51.42
2023-05-10T04:57:40.954Z,50.88
2023-05-10T05:00:13.234Z,50.90
2023-05-10T05:02:46.363Z,50.42
2023-05-10T05:05:15.841Z,49.85
2023-05-10T05:07:44.451Z,49.96
2023-05-10T05:10:13.712Z,50.24
2023-05-10T05:12:42.530Z,49.54
2023-05-10T05:15:13.480Z,49.96
2023-05-10T05:17:42.157Z,48.94
2023-05-10T05:20:12.624Z,48.75
2023-05-10T05:22:41.377Z,48.74
2023-05-10T05:25:11.176Z,48.77
2023-05-10T05:27:39.897Z,48.05
2023-05-10T05:30:10.684Z,48.13
2023-05-10T05:32:40.747Z,47.85
2023-05-10T05:35:10.533Z,46.47
2023-05-10T05:37:39.256Z,45.32
2023-05-10T05:40:10.012Z,45.42
2023-05-10T05:42:39.625Z,44.88
2023-05-10T05:45:14.138Z,44.46
2023-05-10T05:47:44.423Z,43.40
2023-05-10T05:50:13.586Z,43.73
2023-05-10T05:52:42.494Z,43.58
2023-05-10T05:55:11.361Z,42.30
2023-05-10T05:57:40.394Z,42.23
2023-05-10T06:00:10.680Z,42.23
2023-05-10T06:02:43.873Z,41.27
2023-05-10T06:05:12.674Z,41.27
2023-05-10T06:07:43.180Z,41.05
2023-05-10T06:10:12.479Z,40.25
2023-05-10T06:12:41.494Z,39.55
2023-05-10T06:15:12.109Z,39.76
2023-05-10T06:17:41.288Z,39.33
2023-05-10T06:20:14.185Z,39.51
2023-05-10T06:22:43.738Z,39.88
2023-05-10T06:25:13.446Z,39.31
2023-05-10T06:27:42.574Z,39.20
2023-05-10T06:30:14.385Z,38.97
2023-05-10T06:32:44.824Z,37.88
2023-05-10T06:35:15.486Z,38.42
2023-05-10T06:37:44.579Z,37.86
2023-05-10T06:40:14.919Z,37.08
2023-05-10T06:42:44.294Z,37.19
2023-05-10T06:45:13.773Z,36.94
2023-05-10T06:47:43.587Z,37.61
2023-05-10T06:50:14.273Z,36.18
2023-05-10T06:52:44.179Z,36.13
2023-05-10T06:55:13.022Z,35.53
2023-05-10T06:57:42.042Z,35.18
2023-05-10T07:00:11.776Z,34.52
2023-05-10T07:02:40.711Z,35.06
2023-05-10T07:05:10.853Z,35.46
2023-05-10T07:07:41.224Z,34.42
2023-05-10T07:10:11.579Z,33.41
2023-05-10T07:12:40.984Z,33.90
2023-05-10T07:15:11.399Z,33.42
2023-05-10T07:17:41.787Z,33.74
2023-05-10T07:20:12.743Z,33.28
2023-05-10T07:22:43.192Z,33.73
2023-05-10T07:25:12.722Z,32.90
2023-05-10T07:27:41.659Z,32.43
2023-05-10T07:30:11.672Z,31.92
2023-05-10T07:32:42.830Z,30.46
2023-05-10T07:35:11.597Z,30.76
2023-05-10T07:37:41.915Z,30.91
2023-05-10T07:40:11.955Z,31.92
2023-05-10T07:42:41.272Z,31.47
2023-05-10T07:45:11.861Z,29.72
2023-05-10T07:47:40.864Z,29.29
2023-05-10T07:50:10.814Z,29.69
2023-05-10T07:52:39.755Z,28.27
2023-05-10T07:55:11.700Z,28.42
2023-05-10T07:57:41.087Z,27.61
2023-05-10T08:00:11.353Z,27.64
2023-05-10T08:02:43.764Z,28.46
2023-05-10T08:05:12.654Z,29.07
2023-05-10T08:07:41.736Z,28.07
2023-05-10T08:10:13.136Z,27.09
2023-05-10T08:12:42.116Z,27.74
2023-05-10T08:15:12.310Z,27.34
2023-05-10T08:17:41.263Z,28.19
2023-05-10T08:20:10.838Z,27.78
2023-05-10T08:22:39.872Z,27.17
2023-05-10T08:25:09.682Z,28.51
2023-05-10T08:27:39.932Z,28.53
2023-05-10T08:30:10.907Z,28.61
2023-05-10T08:32:40.057Z,28.83
2023-05-10T08:35:09.199Z,28.63
2023-05-10T08:37:38.124Z,29.77
2023-05-10T08:40:08.680Z,28.93
2023-05-10T08:42:45.471Z,29.13
2023-05-10T08:45:15.803Z,29.41
2023-05-10T08:47:45.484Z,28.95
2023-05-10T08:50:15.396Z,29.54
2023-05-10T08:52:44.942Z,27.80
2023-05-10T08:55:13.973Z,28.94
2023-05-10T08:57:44.426Z,27.98
2023-05-10T09:00:15.561Z,27.52
2023-05-10T09:02:46.907Z,28.44
2023-05-10T09:05:17.289Z,28.48
2023-05-10T09:07:46.499Z,27.42
2023-05-10T09:10:17.937Z,28.92
2023-05-10T09:12:49.881Z,28.17
2023-05-10T09:15:20.354Z,28.20
2023-05-10T09:17:51.317Z,27.68
2023-05-10T09:20:20.043Z,28.02
2023-05-10T09:22:49.095Z,27.91
2023-05-10T09:25:19.258Z,27.26
2023-05-10T09:27:51.163Z,28.23
2023-05-10T09:30:27.406Z,26.88
2023-05-10T09:32:58.482Z,25.52
2023-05-10T09:35:30.143Z,25.22
2023-05-10T09:38:03.185Z,26.07
2023-05-10T09:40:32.999Z,26.36
2023-05-10T09:43:06.912Z,26.90
2023-05-10T09:45:39.184Z,25.98
2023-05-10T09:48:08.846Z,25.00
2023-05-10T09:50:37.752Z,26.18
2023-05-10T09:53:06.710Z,26.00
2023-05-10T09:55:45.710Z,25.66
2023-05-10T09:58:17.156Z,25.88
2023-05-10T10:00:48.874Z,25.05
2023-05-10T10:03:20.726Z,23.94
2023-05-10T10:05:51.297Z,23.89
2023-05-10T10:08:20.456Z,23.73
2023-05-10T10:10:51.964Z,24.09
2023-05-10T10:13:22.785Z,24.28
2023-05-10T10:15:53.402Z,24.06
2023-05-10T10:18:28.040Z,23.09
2023-05-10T10:20:58.136Z,21.79
2023-05-10T10:23:28.337Z,21.52
2023-05-10T10:25:57.845Z,22.88
2023-05-10T10:28:42.930Z,22.52
2023-05-10T10:31:28.577Z,22.99
2023-05-10T10:34:07.755Z,21.97
2023-05-10T10:36:44.379Z,21.89
2023-05-10T10:39:14.205Z,22.56
2023-05-10T10:41:52.188Z,22.20
2023-05-10T10:44:39.264Z,21.78
2023-05-10T10:47:30.102Z,23.04
2023-05-10T10:50:07.945Z,22.86
2023-05-10T10:52:37.977Z,23.10
2023-05-10T10:55:10.762Z,22.80
2023-05-10T10:57:52.707Z,22.47
2023-05-10T11:00:31.573Z,21.98
2023-05-10T11:03:05.336Z,22.23
2023-05-10T11:05:41.532Z,23.26
2023-05-10T11:08:18.190Z,22.70
2023-05-10T11:11:05.601Z,23.30
2023-05-10T11:13:36.994Z,24.16
2023-05-10T11:16:17.691Z,24.09
2023-05-10T11:19:00.288Z,24.22
2023-05-10T11:21:29.409Z,24.14
2023-05-10T11:23:59.877Z,24.78
2023-05-10T11:26:34.578Z,25.25
2023-05-10T11:29:05.547Z,25.52
2023-05-10T11:31:37.279Z,24.91
2023-05-10T11:34:06.044Z,24.96
2023-05-10T11:36:37.828Z,25.10
2023-05-10T11:39:07.768Z,23.62
2023-05-10T11:41:36.825Z,24.25
2023-05-10T11:44:05.767Z,24.50
2023-05-10T11:46:36.108Z,23.89
2023-05-10T11:49:05.706Z,23.64
2023-05-10T11:51:37.778Z,23.41
2023-05-10T11:54:10.802Z,23.33
2023-05-10T11:56:40.317Z,23.04
2023-05-10T11:59:09.699Z,22.85
2023-05-10T12:01:40.333Z,24.23
2023-05-10T12:04:09.499Z,23.99
2023-05-10T12:06:43.448Z,25.44
2023-05-10T12:09:12.305Z,25.84
2023-05-10T12:11:44.552Z,26.61
2023-05-10T12:14:13.456Z,26.60
2023-05-10T12:16:46.121Z,27.10
2023-05-10T12:19:20.113Z,27.02
2023-05-10T12:21:49.979Z,26.65
2023-05-10T12:24:19.031Z,27.54
2023-05-10T12:27:07.501Z,28.14
2023-05-10T12:29:36.171Z,28.32
2023-05-10T12:32:06.765Z,28.19
2023-05-10T12:34:39.494Z,27.80
2023-05-10T12:37:08.506Z,27.91
2023-05-10T12:39:43.001Z,28.23
2023-05-10T12:42:12.774Z,28.08
2023-05-10T12:44:41.904Z,27.42
2023-05-10T12:47:12.423Z,27.75
2023-05-10T12:49:41.101Z,28.55
2023-05-10T12:52:10.099Z,28.00
2023-05-10T12:54:38.806Z,28.15
2023-05-10T12:57:07.858Z,29.11
2023-05-10T12:59:38.184Z,28.60
2023-05-10T13:02:08.692Z,28.42
2023-05-10T13:04:40.715Z,28.20
2023-05-10T13:07:10.590Z,27.48
2023-05-10T13:09:39.554Z,28.93
2023-05-10T13:12:10.125Z,28.86
2023-05-10T13:14:41.565Z,28.89
2023-05-10T13:17:11.067Z,28.53
2023-05-10T13:19:42.745Z,28.41
2023-05-10T13:22:11.938Z,28.04
2023-05-10T13:24:41.636Z,28.25
2023-05-10T13:27:11.149Z,28.90
2023-05-10T13:29:40.032Z,28.81
2023-05-10T13:32:09.901Z,28.71
2023-05-10T13:34:41.076Z,28.18
2023-05-10T13:37:11.123Z,28.16
2023-05-10T13:39:40.053Z,27.61
2023-05-10T13:42:09.431Z,27.60
2023-05-10T13:44:39.797Z,28.80
2023-05-10T13:47:09.033Z,28.53
2023-05-10T13:49:37.933Z,28.17
2023-05-10T13:52:08.933Z,28.07
2023-05-10T13:54:39.270Z,27.53
2023-05-10T13:57:08.854Z,28.08
2023-05-10T13:59:38.461Z,28.65
2023-05-10T14:02:08.473Z,27.46
2023-05-10T14:04:37.522Z,27.93
2023-05-10T14:07:10.220Z,28.61
2023-05-10T14:09:39.839Z,28.42
2023-05-10T14:12:09.176Z,28.49
2023-05-10T14:14:38.068Z,28.62
2023-05-10T14:17:09.555Z,28.74
2023-05-10T14:19:40.558Z,28.82
2023-05-10T14:22:11.532Z,28.78
2023-05-10T14:24:40.756Z,28.48
2023-05-10T14:27:10.031Z,29.05
2023-05-10T14:29:38.882Z,28.82
2023-05-10T14:32:08.335Z,29.13
2023-05-10T14:34:37.300Z,28.91
2023-05-10T14:37:06.825Z,29.33
2023-05-10T14:39:37.061Z,28.67
2023-05-10T14:42:06.958Z,28.89
2023-05-10T14:44:36.037Z,28.48
2023-05-10T14:47:05.373Z,29.15
2023-05-10T14:49:34.262Z,29.43
2023-05-10T14:52:04.181Z,29.34
2023-05-10T14:54:34.492Z,29.20
2023-05-10T14:57:05.255Z,28.71
2023-05-10T14:59:34.134Z,29.36
2023-05-10T15:02:04.219Z,29.14
2023-05-10T15:04:33.693Z,29.10
2023-05-10T15:07:03.747Z,29.61
2023-05-10T15:09:32.571Z,29.26
2023-05-10T15:12:01.712Z,28.85
2023-05-10T15:14:32.508Z,29.24
2023-05-10T15:17:01.955Z,29.61
2023-05-10T15:19:30.870Z,29.55
2023-05-10T15:22:00.226Z,29.15
2023-05-10T15:24:29.165Z,29.85
2023-05-10T15:26:58.972Z,29.44
2023-05-10T15:29:27.793Z,29.84
2023-05-10T15:31:58.385Z,30.08
2023-05-10T15:34:28.218Z,29.14
2023-05-10T15:36:58.317Z,29.02
2023-05-10T15:39:27.231Z,28.95
2023-05-10T15:41:56.318Z,29.28
2023-05-10T15:44:25.728Z,29.30
2023-05-10T15:46:54.916Z,29.47
2023-05-10T15:49:25.375Z,28.73
2023-05-10T15:51:55.125Z,28.62
2023-05-10T15:54:25.148Z,28.78
2023-05-10T15:56:55.223Z,29.06
2023-05-10T15:59:24.104Z,28.67
2023-05-10T16:01:54.867Z,28.28
2023-05-10T16:04:25.146Z,28.00
2023-05-10T16:06:54.406Z,27.91
2023-05-10T16:09:24.074Z,27.86
2023-05-10T16:11:53.405Z,27.76
2023-05-10T16:14:25.364Z,27.63
2023-05-10T16:16:54.639Z,27.47
2023-05-10T16:19:29.130Z,27.76
2023-05-10T16:22:00.451Z,28.48
2023-05-10T16:24:29.604Z,27.56
2023-05-10T16:26:58.762Z,28.10
2023-05-10T16:29:27.873Z,27.80
2023-05-10T16:31:57.151Z,27.60
2023-05-10T16:34:27.489Z,26.86
2023-05-10T16:36:57.208Z,26.98
2023-05-10T16:39:26.175Z,27.15
2023-05-10T16:41:55.458Z,27.03
2023-05-10T16:44:25.961Z,27.28
2023-05-10T16:46:56.205Z,27.12
2023-05-10T16:49:27.432Z,27.19
2023-05-10T16:51:57.642Z,27.04
2023-05-10T16:54:27.045Z,27.55
2023-05-10T16:56:57.620Z,26.93
2023-05-10T16:59:26.829Z,27.07
2023-05-10T17:01:56.591Z,26.79
2023-05-10T17:04:27.654Z,27.48
2023-05-10T17:06:56.831Z,27.51
2023-05-10T17:09:25.900Z,27.76
2023-05-10T17:11:55.201Z,27.73
2023-05-10T17:14:24.845Z,28.00
2023-05-10T17:16:55.616Z,28.17
2023-05-10T17:19:26.460Z,28.55
2023-05-10T17:21:55.989Z,28.24
2023-05-10T17:24:24.915Z,28.12
2023-05-10T17:26:54.704Z,27.87
2023-05-10T17:29:23.833Z,28.02
2023-05-10T17:31:53.827Z,28.02
2023-05-10T17:34:28.710Z,28.78
2023-05-10T17:36:59.719Z,28.91
2023-05-10T17:39:29.878Z,28.85
2023-05-10T17:41:59.232Z,29.11
2023-05-10T17:44:28.192Z,29.12
2023-05-10T17:46:58.473Z,29.77
2023-05-10T17:49:29.231Z,29.98
2023-05-10T17:52:00.774Z,30.03
2023-05-10T17:54:30.553Z,29.63
2023-05-10T17:57:03.156Z,29.72
2023-05-10T17:59:32.295Z,30.12
2023-05-10T18:02:03.711Z,30.54
2023-05-10T18:04:33.854Z,30.23
2023-05-10T18:07:04.817Z,31.01
2023-05-10T18:09:34.213Z,30.73
2023-05-10T18:12:04.670Z,30.98
2023-05-10T18:14:40.678Z,31.35
2023-05-10T18:17:11.015Z,31.79
2023-05-10T18:19:40.904Z,32.24
2023-05-10T18:22:12.260Z,31.58
2023-05-10T18:24:41.252Z,32.16
2023-05-10T18:27:11.774Z,32.43
2023-05-10T18:29:41.105Z,32.42
2023-05-10T18:32:10.437Z,32.61
2023-05-10T18:34:39.388Z,33.02
2023-05-10T18:37:10.882Z,32.97
2023-05-10T18:39:42.875Z,33.12
2023-05-10T18:42:12.593Z,33.30
2023-05-10T18:44:44.036Z,33.14
2023-05-10T18:47:14.163Z,33.76
2023-05-10T18:49:46.398Z,33.60
2023-05-10T18:52:20.281Z,34.09
2023-05-10T18:54:50.661Z,34.62
2023-05-10T18:57:22.105Z,34.97
2023-05-10T18:59:52.433Z,33.69
2023-05-10T19:02:26.829Z,34.38
2023-05-10T19:05:00.521Z,34.21
2023-05-10T19:07:33.843Z,34.50
2023-05-10T19:10:03.853Z,34.67
2023-05-10T19:12:33.174Z,34.79
2023-05-10T19:15:02.219Z,34.40
2023-05-10T19:17:32.516Z,34.53
2023-05-10T19:20:02.025Z,34.77
2023-05-10T19:22:47.207Z,35.10
2023-05-10T19:25:19.065Z,34.88
2023-05-10T19:27:49.126Z,35.56
2023-05-10T19:30:18.123Z,35.06
2023-05-10T19:32:47.946Z,34.93
2023-05-10T19:35:17.338Z,34.93
2023-05-10T19:37:47.872Z,34.70
2023-05-10T19:40:17.472Z,34.68
2023-05-10T19:42:46.747Z,34.98
2023-05-10T19:45:16.642Z,34.57
2023-05-10T19:47:46.005Z,34.98
2023-05-10T19:50:18.326Z,35.16
2023-05-10T19:52:49.500Z,35.04
2023-05-10T19:55:30.554Z,35.13
2023-05-10T19:58:01.505Z,35.70
2023-05-10T20:00:30.512Z,35.24
2023-05-10T20:02:59.821Z,35.73
2023-05-10T20:05:28.648Z,35.68
2023-05-10T20:07:58.992Z,35.62
2023-05-10T20:10:27.849Z,35.69
2023-05-10T20:12:58.730Z,35.68
2023-05-10T20:15:27.923Z,36.19
2023-05-10T20:17:57.075Z,35.90
2023-05-10T20:20:25.930Z,35.96
2023-05-10T20:22:54.945Z,36.00
2023-05-10T20:25:25.188Z,36.16
2023-05-10T20:27:54.148Z,36.12
2023-05-10T20:30:23.057Z,36.37
2023-05-10T20:32:52.057Z,36.25
2023-05-10T20:35:20.888Z,36.25
2023-05-10T20:37:49.894Z,36.47
2023-05-10T20:40:18.780Z,36.65
2023-05-10T20:42:49.942Z,36.92
2023-05-10T20:45:18.640Z,36.73
2023-05-10T20:47:47.645Z,37.13
2023-05-10T20:50:16.522Z,37.13
2023-05-10T20:52:45.702Z,36.88
2023-05-10T20:55:14.490Z,36.97
2023-05-10T20:57:43.410Z,37.29
2023-05-10T21:00:15.485Z,37.38
2023-05-10T21:02:46.943Z,37.24
2023-05-10T21:05:15.834Z,37.58
2023-05-10T21:07:44.962Z,37.57
2023-05-10T21:10:13.630Z,37.82
2023-05-10T21:12:42.732Z,37.83
2023-05-10T21:15:13.389Z,37.78
2023-05-10T21:17:42.346Z,37.94
2023-05-10T21:20:12.969Z,38.26
2023-05-10T21:22:41.857Z,38.58
2023-05-10T21:25:11.399Z,38.68
2023-05-10T21:27:40.912Z,38.80
2023-05-10T21:30:13.151Z,38.71
2023-05-10T21:32:42.548Z,38.88
2023-05-10T21:35:11.615Z,39.45
2023-05-10T21:37:40.531Z,39.29
2023-05-10T21:40:10.575Z,39.53
2023-05-10T21:42:39.472Z,39.41
2023-05-10T21:45:09.331Z,39.64
2023-05-10T21:47:39.678Z,39.82
2023-05-10T21:50:11.221Z,39.68
2023-05-10T21:52:40.581Z,39.87
2023-05-10T21:55:10.872Z,40.00
2023-05-10T21:57:39.797Z,40.31
2023-05-10T22:00:11.906Z,40.13
2023-05-10T22:02:43.012Z,39.82
2023-05-10T22:05:11.841Z,40.21
2023-05-10T22:07:40.819Z,40.07
2023-05-10T22:10:10.815Z,40.54
2023-05-10T22:12:39.753Z,40.44
2023-05-10T22:15:10.965Z,40.78
2023-05-10T22:17:42.341Z,40.68
2023-05-10T22:20:11.675Z,41.06
2023-05-10T22:22:40.692Z,40.75
2023-05-10T22:25:09.997Z,40.75
2023-05-10T22:27:39.037Z,40.96
2023-05-10T22:30:09.678Z,41.18
2023-05-10T22:32:38.627Z,41.30
2023-05-10T22:35:10.177Z,41.31
2023-05-10T22:37:39.142Z,41.47
2023-05-10T22:40:09.805Z,41.46
2023-05-10T22:42:38.810Z,41.85
2023-05-10T22:45:09.525Z,41.93
2023-05-10T22:47:38.698Z,41.85
2023-05-10T22:50:10.667Z,41.95
2023-05-10T22:52:39.950Z,42.07
2023-05-10T22:55:09.509Z,42.08
2023-05-10T22:57:38.935Z,42.15
2023-05-10T23:00:09.846Z,42.10
2023-05-10T23:02:38.932Z,42.17
2023-05-10T23:05:10.857Z,42.22
2023-05-10T23:07:39.847Z,42.71
2023-05-10T23:10:09.319Z,42.62
2023-05-10T23:12:38.286Z,42.49
2023-05-10T23:15:08.530Z,42.61
2023-05-10T23:17:37.532Z,42.58
2023-05-10T23:20:09.231Z,42.61
2023-05-10T23:22:38.287Z,43.05
2023-05-10T23:25:08.545Z,42.87
2023-05-10T23:27:37.467Z,43.03
2023-05-10T23:30:07.775Z,42.87
2023-05-10T23:32:36.710Z,43.14
2023-05-10T23:35:06.330Z,43.20
2023-05-10T23:37:37.120Z,43.41
2023-05-10T23:40:07.237Z,43.04
2023-05-10T23:42:36.227Z,43.69
2023-05-10T23:45:05.755Z,43.60
2023-05-10T23:47:34.751Z,43.49
2023-05-10T23:50:05.300Z,43.46
2023-05-10T23:52:43.802Z,43.30
2023-05-10T23:55:12.987Z,43.30
2023-05-10T23:57:41.939Z,43.02
